Terminal Aerodrome Forecast
Issued by NWS

Home | Current Version | Previous Version | Graphics & Text | Print | Product List | Glossary On
Versions: 1 2 3 4 5 6 7 8 9 10 11 12 13 14 15 16 17 18 19 20
000
FTUS43 KICT 250520
TAFRSL
TAF
KRSL 250520Z 2506/2606 05011KT P6SM VCTS SCT050 BKN100CB
      TEMPO 2506/2510 -TSRA
     FM251200 07010KT P6SM SCT070 BKN150
     FM252200 13009KT P6SM SCT150=

USA.gov is the U.S. government's official web portal to all federal, state and local government web resources and services.